createdAt,value
2019-04-01T00:04:37.900Z," 4.24"
2019-04-01T00:09:33.234Z," 4.28"
2019-04-01T00:14:30.007Z," 4.20"
2019-04-01T00:19:25.481Z," 4.31"
2019-04-01T00:24:22.227Z," 4.22"
2019-04-01T00:29:18.373Z," 4.20"
2019-04-01T00:34:14.296Z," 4.31"
2019-04-01T00:39:09.890Z," 4.24"
2019-04-01T00:44:05.590Z," 4.05"
2019-04-01T00:49:02.103Z," 4.05"
2019-04-01T00:53:57.491Z," 4.20"
2019-04-01T00:58:53.169Z," 4.10"
2019-04-01T01:03:49.348Z," 3.99"
2019-04-01T01:08:46.020Z," 4.06"
2019-04-01T01:13:41.281Z," 3.91"
2019-04-01T01:18:37.761Z," 3.78"
2019-04-01T01:23:33.761Z," 3.78"
2019-04-01T01:28:29.558Z," 3.76"
2019-04-01T01:33:25.206Z," 3.69"
2019-04-01T01:38:20.919Z," 3.66"
2019-04-01T01:43:16.305Z," 3.66"
2019-04-01T01:48:11.688Z," 3.59"
2019-04-01T01:53:07.386Z," 3.56"
2019-04-01T01:58:02.982Z," 3.47"
2019-04-01T02:02:59.118Z," 3.53"
2019-04-01T02:07:54.759Z," 3.40"
2019-04-01T02:12:50.236Z," 3.41"
2019-04-01T02:17:45.831Z," 3.31"
2019-04-01T02:22:42.417Z," 3.32"
2019-04-01T02:27:39.342Z," 3.16"
2019-04-01T02:32:35.824Z," 3.21"
2019-04-01T02:37:31.014Z," 3.08"
2019-04-01T02:42:26.558Z," 3.13"
2019-04-01T02:47:22.234Z," 3.01"
2019-04-01T02:52:18.602Z," 2.98"
2019-04-01T02:57:14.083Z," 2.97"
2019-04-01T03:02:10.573Z," 2.83"
2019-04-01T03:07:06.542Z," 2.87"
2019-04-01T03:12:03.101Z," 2.83"
2019-04-01T03:16:58.578Z," 2.79"
2019-04-01T03:21:55.278Z," 2.62"
2019-04-01T03:26:50.461Z," 2.65"
2019-04-01T03:31:47.070Z," 2.64"
2019-04-01T03:36:42.618Z," 2.68"
2019-04-01T03:41:38.160Z," 2.65"
2019-04-01T03:46:33.788Z," 2.57"
2019-04-01T03:51:29.179Z," 2.54"
2019-04-01T03:56:24.861Z," 2.57"
2019-04-01T04:01:20.254Z," 2.39"
2019-04-01T04:06:15.888Z," 2.47"
2019-04-01T04:11:11.701Z," 2.51"
2019-04-01T04:16:07.526Z," 2.43"
2019-04-01T04:21:04.394Z," 2.46"
2019-04-01T04:25:59.703Z," 2.46"
2019-04-01T04:30:56.997Z," 2.39"
2019-04-01T04:35:52.298Z," 2.56"
2019-04-01T04:40:49.068Z," 2.50"
2019-04-01T04:45:44.773Z," 2.62"
2019-04-01T04:50:41.759Z," 2.68"
2019-04-01T04:55:37.235Z," 2.60"
2019-04-01T05:00:33.052Z," 2.49"
2019-04-01T05:05:29.870Z," 2.44"
2019-04-01T05:10:25.217Z," 2.46"
2019-04-01T05:15:21.750Z," 2.54"
2019-04-01T05:20:17.383Z," 2.61"
2019-04-01T05:25:13.052Z," 2.54"
2019-04-01T05:30:09.763Z," 2.54"
2019-04-01T05:35:06.078Z," 2.68"
2019-04-01T05:40:01.401Z," 2.68"
2019-04-01T05:44:57.403Z," 2.77"
2019-04-01T05:49:53.007Z," 2.82"
2019-04-01T05:54:48.747Z," 3.05"
2019-04-01T05:59:45.524Z," 3.37"
2019-04-01T06:04:41.192Z," 3.74"
2019-04-01T06:09:37.429Z," 3.65"
2019-04-01T06:14:34.275Z," 3.83"
2019-04-01T06:19:30.216Z," 3.99"
2019-04-01T06:24:26.343Z," 4.32"
2019-04-01T06:29:22.588Z," 4.73"
2019-04-01T06:34:18.627Z," 4.94"
2019-04-01T06:39:14.704Z," 5.11"
2019-04-01T06:44:10.646Z," 5.32"
2019-04-01T06:49:06.675Z," 5.51"
2019-04-01T06:54:02.494Z," 5.59"
2019-04-01T06:58:58.366Z," 5.56"
2019-04-01T07:03:56.415Z," 5.90"
2019-04-01T07:08:53.184Z," 6.30"
2019-04-01T07:13:48.626Z," 6.70"
2019-04-01T07:18:44.729Z," 6.74"
2019-04-01T07:23:40.578Z," 6.89"
2019-04-01T07:28:36.991Z," 6.96"
2019-04-01T07:33:32.901Z," 6.93"
2019-04-01T07:38:28.697Z," 7.29"
2019-04-01T07:43:24.507Z," 7.32"
2019-04-01T07:48:20.504Z," 7.57"
2019-04-01T07:53:16.808Z," 7.98"
2019-04-01T07:58:13.268Z," 8.33"
2019-04-01T08:03:09.748Z," 8.67"
2019-04-01T08:08:05.990Z," 8.87"
2019-04-01T08:13:01.964Z," 8.92"
2019-04-01T08:17:58.796Z," 9.19"
2019-04-01T08:22:55.594Z," 9.13"
2019-04-01T08:27:51.321Z," 9.47"
2019-04-01T08:32:47.564Z," 9.58"
2019-04-01T08:37:43.271Z," 9.65"
2019-04-01T08:42:39.302Z," 9.83"
2019-04-01T08:47:34.932Z," 9.83"
2019-04-01T08:52:30.713Z," 9.97"
2019-04-01T08:57:26.444Z," 9.76"
2019-04-01T09:02:23.074Z," 9.68"
2019-04-01T09:07:18.646Z," 9.86"
2019-04-01T09:12:14.485Z,10.05
2019-04-01T09:17:10.385Z,10.01
2019-04-01T09:22:06.662Z,10.04
2019-04-01T09:27:02.486Z,10.28
2019-04-01T09:31:58.149Z,10.46
2019-04-01T09:36:54.127Z,10.51
2019-04-01T09:41:50.225Z,10.75
2019-04-01T09:46:49.025Z,10.78
2019-04-01T09:51:48.786Z,10.82
2019-04-01T09:56:44.015Z,11.04
2019-04-01T10:01:39.812Z,11.30
2019-04-01T10:06:35.698Z,11.27
2019-04-01T10:11:32.708Z,11.59
2019-04-01T10:16:28.850Z,11.91
2019-04-01T10:21:26.269Z,11.84
2019-04-01T10:26:22.200Z,12.42
2019-04-01T10:31:18.345Z,12.36
2019-04-01T10:36:15.763Z,11.99
2019-04-01T10:41:11.696Z,12.18
2019-04-01T10:46:08.155Z,12.47
2019-04-01T10:51:04.864Z,12.85
2019-04-01T10:56:01.606Z,13.23
2019-04-01T11:00:59.270Z,12.93
2019-04-01T11:05:55.123Z,13.03
2019-04-01T11:10:52.404Z,13.52
2019-04-01T11:15:48.902Z,13.11
2019-04-01T11:20:44.624Z,13.47
2019-04-01T11:25:41.153Z,13.41
2019-04-01T11:30:37.415Z,13.67
2019-04-01T11:35:33.330Z,13.27
2019-04-01T11:40:28.955Z,13.96
2019-04-01T11:45:25.941Z,13.71
2019-04-01T11:50:21.448Z,13.53
2019-04-01T11:55:17.266Z,13.71
2019-04-01T12:00:13.579Z,13.74
2019-04-01T12:05:09.398Z,13.95
2019-04-01T12:10:07.466Z,14.53
2019-04-01T12:15:03.195Z,14.20
2019-04-01T12:20:00.393Z,13.79
2019-04-01T12:24:55.619Z,13.72
2019-04-01T12:29:51.683Z,13.77
2019-04-01T12:34:47.129Z,13.60
2019-04-01T12:39:42.260Z,13.71
2019-04-01T12:44:37.731Z,13.71
2019-04-01T12:49:32.952Z,13.52
2019-04-01T12:54:29.289Z,14.05
2019-04-01T12:59:24.784Z,14.00
2019-04-01T13:04:21.432Z,14.40
2019-04-01T13:09:17.310Z,14.28
2019-04-01T13:14:13.840Z,14.17
2019-04-01T13:19:09.744Z,15.18
2019-04-01T13:24:06.668Z,15.10
2019-04-01T13:29:04.076Z,14.91
2019-04-01T13:33:59.838Z,14.78
2019-04-01T13:38:55.658Z,14.59
2019-04-01T13:43:51.155Z,14.66
2019-04-01T13:48:57.515Z,14.35
2019-04-01T13:53:47.399Z,14.35
2019-04-01T13:58:43.746Z,14.43
2019-04-01T14:03:39.848Z,15.00
2019-04-01T14:08:36.907Z,15.07
2019-04-01T14:13:33.532Z,15.04
2019-04-01T14:18:29.111Z,15.03
2019-04-01T14:23:24.470Z,14.44
2019-04-01T14:28:20.981Z,14.37
2019-04-01T14:33:16.354Z,14.29
2019-04-01T14:38:12.004Z,14.14
2019-04-01T14:43:09.848Z,14.36
2019-04-01T14:48:08.375Z,14.15
2019-04-01T14:53:03.608Z,14.10
2019-04-01T14:58:00.415Z,14.18
2019-04-01T15:02:56.974Z,14.28
2019-04-01T15:07:52.605Z,14.26
2019-04-01T15:12:48.227Z,14.23
2019-04-01T15:17:43.888Z,14.12
2019-04-01T15:22:39.553Z,14.17
2019-04-01T15:27:35.657Z,14.29
2019-04-01T15:32:31.107Z,14.28
2019-04-01T15:37:27.057Z,14.08
2019-04-01T15:42:22.902Z,14.17
2019-04-01T15:47:18.698Z,14.04
2019-04-01T15:52:14.558Z,14.03
2019-04-01T15:57:10.233Z,13.99
2019-04-01T16:02:05.797Z,13.99
2019-04-01T16:07:01.868Z,13.92
2019-04-01T16:11:57.621Z,13.95
2019-04-01T16:16:53.263Z,13.97
2019-04-01T16:21:50.329Z,13.79
2019-04-01T16:26:45.441Z,13.79
2019-04-01T16:31:41.557Z,13.72
2019-04-01T16:36:37.548Z,13.78
2019-04-01T16:41:34.250Z,13.87
2019-04-01T16:46:29.714Z,13.74
2019-04-01T16:51:25.578Z,13.72
2019-04-01T16:56:21.378Z,13.65
2019-04-01T17:01:17.145Z,13.67
2019-04-01T17:06:13.010Z,13.56
2019-04-01T17:11:08.762Z,13.54
2019-04-01T17:16:05.573Z,13.49
2019-04-01T17:21:02.282Z,13.38
2019-04-01T17:25:57.854Z,13.28
2019-04-01T17:30:54.166Z,13.22
2019-04-01T17:35:50.141Z,13.04
2019-04-01T17:40:46.509Z,13.01
2019-04-01T17:45:43.058Z,12.86
2019-04-01T17:50:38.258Z,12.73
2019-04-01T17:55:34.895Z,12.60
2019-04-01T18:00:30.272Z,12.49
2019-04-01T18:05:25.978Z,12.46
2019-04-01T18:10:21.725Z,12.28
2019-04-01T18:15:20.582Z,12.18
2019-04-01T18:20:20.577Z,12.17
2019-04-01T18:25:15.847Z,11.91
2019-04-01T18:30:11.553Z,11.84
2019-04-01T18:35:08.292Z,11.65
2019-04-01T18:40:04.693Z,11.57
2019-04-01T18:45:00.058Z,11.59
2019-04-01T18:49:56.220Z,11.59
2019-04-01T18:54:52.513Z,11.48
2019-04-01T18:59:49.960Z,11.35
2019-04-01T19:04:45.195Z,11.35
2019-04-01T19:09:42.120Z,11.35
2019-04-01T19:14:37.701Z,11.32
2019-04-01T19:19:33.510Z,11.18
2019-04-01T19:24:29.466Z,11.05
2019-04-01T19:29:26.443Z,11.04
2019-04-01T19:34:22.959Z,10.89
2019-04-01T19:39:18.418Z,10.93
2019-04-01T19:44:15.203Z,10.87
2019-04-01T19:49:10.833Z,10.81
2019-04-01T19:54:07.463Z,10.76
2019-04-01T19:59:02.942Z,10.57
2019-04-01T20:03:58.942Z,10.51
2019-04-01T20:08:54.599Z,10.46
2019-04-01T20:13:51.303Z,10.35
2019-04-01T20:18:46.529Z,10.25
2019-04-01T20:23:42.309Z,10.35
2019-04-01T20:28:38.145Z,10.31
2019-04-01T20:33:34.016Z,10.16
2019-04-01T20:38:29.422Z,10.09
2019-04-01T20:43:25.113Z,10.09
2019-04-01T20:48:22.214Z,10.04
2019-04-01T20:53:18.215Z,10.13
2019-04-01T20:58:14.483Z," 9.97"
2019-04-01T21:03:10.237Z,10.02
2019-04-01T21:08:05.756Z,10.05
2019-04-01T21:13:01.545Z," 9.97"
2019-04-01T21:17:57.076Z," 9.95"
2019-04-01T21:22:53.045Z," 9.79"
2019-04-01T21:27:48.723Z," 9.72"
2019-04-01T21:32:45.140Z," 9.72"
2019-04-01T21:37:41.013Z," 9.62"
2019-04-01T21:42:36.526Z," 9.56"
2019-04-01T21:47:33.206Z," 9.54"
2019-04-01T21:52:28.620Z," 9.48"
2019-04-01T21:57:24.279Z," 9.43"
2019-04-01T22:02:20.864Z," 9.31"
2019-04-01T22:07:16.615Z," 9.25"
2019-04-01T22:12:12.261Z," 9.21"
2019-04-01T22:17:07.833Z," 9.18"
2019-04-01T22:22:03.410Z," 9.19"
2019-04-01T22:26:59.141Z," 9.02"
2019-04-01T22:31:54.930Z," 8.99"
2019-04-01T22:36:51.961Z," 8.97"
2019-04-01T22:41:47.347Z," 8.88"
2019-04-01T22:46:42.920Z," 8.84"
2019-04-01T22:51:39.647Z," 8.76"
2019-04-01T22:56:35.356Z," 8.67"
2019-04-01T23:01:31.033Z," 8.66"
2019-04-01T23:11:26.751Z," 8.58"
2019-04-01T23:16:22.165Z," 8.48"
2019-04-01T23:21:17.920Z," 8.36"
2019-04-01T23:26:13.453Z," 8.37"
2019-04-01T23:31:09.054Z," 8.27"
2019-04-01T23:36:04.530Z," 8.26"
2019-04-01T23:41:01.228Z," 8.12"
2019-04-01T23:45:57.077Z," 8.12"
2019-04-01T23:50:52.653Z," 8.05"
2019-04-01T23:55:48.365Z," 8.12"
